Time;durP1;ratioP1;P1;durP2;ratioP2;P2;SDS_P1;SDS_P2;PMS_P1;PMS_P2;Temp;Humidity;BMP_temperature;BMP_pressure;BME280_temperature;BME280_humidity;BME280_pressure;Samples;Min_cycle;Max_cycle;Signal;HPM_P1;HPM_P2
2021/11/27 00:02:13;;;;;;;66.65;31.65;;;;;;;3.76;100.00;98312.72;2611879;36;20200;-70
2021/11/27 00:04:41;;;;;;;71.63;30.63;;;;;;;3.75;100.00;98315.53;2613247;31;20518;-70
2021/11/27 00:07:10;;;;;;;62.17;28.58;;;;;;;3.82;100.00;98317.41;2612345;36;20150;-71
2021/11/27 00:09:38;;;;;;;66.78;30.95;;;;;;;3.78;100.00;98305.41;2612429;36;20037;-70
2021/11/27 00:12:07;;;;;;;62.10;29.52;;;;;;;3.75;100.00;98310.22;2612425;36;20130;-71
2021/11/27 00:14:36;;;;;;;66.40;29.63;;;;;;;3.68;100.00;98305.53;2612676;31;20881;-70
2021/11/27 00:17:22;;;;;;;55.85;28.00;;;;;;;3.76;100.00;98311.91;2612255;36;20581;-70
2021/11/27 00:19:53;;;;;;;54.78;27.70;;;;;;;3.75;100.00;98304.91;2612227;31;20367;-69
2021/11/27 00:22:29;;;;;;;64.85;28.88;;;;;;;3.70;100.00;98308.03;2612286;36;20431;-69
2021/11/27 00:24:57;;;;;;;61.00;29.88;;;;;;;3.70;100.00;98308.03;2612148;36;20036;-69
2021/11/27 00:27:34;;;;;;;61.00;27.50;;;;;;;3.71;100.00;98304.41;2612069;36;20141;-69
2021/11/27 00:30:03;;;;;;;64.53;28.15;;;;;;;3.74;100.00;98304.06;2612320;36;20618;-69
2021/11/27 00:32:46;;;;;;;;;;;;;;;3.73;100.00;98301.56;2612351;36;20073;-70
2021/11/27 00:35:19;;;;;;;52.55;26.40;;;;;;;3.76;100.00;98299.44;2611965;31;20081;-70
2021/11/27 00:37:47;;;;;;;60.15;28.65;;;;;;;3.76;100.00;98291.44;2612133;36;20030;-70
2021/11/27 00:40:17;;;;;;;48.37;23.80;;;;;;;3.72;100.00;98292.75;2612005;36;20133;-70
2021/11/27 00:42:47;;;;;;;50.58;23.92;;;;;;;3.69;100.00;98290.41;2612210;36;20137;-69
2021/11/27 00:45:19;;;;;;;43.95;23.35;;;;;;;3.68;100.00;98296.69;2611803;54;20052;-70
2021/11/27 00:47:51;;;;;;;44.30;21.00;;;;;;;3.70;100.00;98291.25;2611963;36;20035;-69
2021/11/27 00:50:25;;;;;;;43.55;21.40;;;;;;;3.73;100.00;98297.09;2611537;36;20054;-69
2021/11/27 00:52:53;;;;;;;45.05;22.05;;;;;;;3.70;100.00;98292.06;2611930;36;20064;-69
2021/11/27 00:58:18;;;;;;;43.88;19.83;;;;;;;3.67;100.00;98301.19;2612200;31;20175;-69
2021/11/27 01:00:56;;;;;;;36.88;19.92;;;;;;;3.63;100.00;98299.00;2611664;36;20061;-69
2021/11/27 01:03:39;;;;;;;45.58;19.73;;;;;;;3.63;100.00;98305.16;2611656;36;20489;-69
2021/11/27 01:06:16;;;;;;;41.35;19.63;;;;;;;3.60;100.00;98297.47;2611128;36;20052;-69
2021/11/27 01:08:56;;;;;;;39.55;18.35;;;;;;;3.59;100.00;98294.97;2612409;47;20043;-69
2021/11/27 01:11:30;;;;;;;37.63;16.70;;;;;;;3.62;100.00;98299.97;2611965;31;20038;-69
2021/11/27 01:14:04;;;;;;;33.20;16.25;;;;;;;3.59;100.00;98294.97;2612446;36;20080;-69
2021/11/27 01:16:37;;;;;;;27.70;14.82;;;;;;;3.56;100.00;98296.09;2612353;36;20065;-69
2021/11/27 01:19:14;;;;;;;28.00;15.18;;;;;;;3.61;100.00;98293.00;2612425;36;20165;-70
2021/11/27 01:22:21;;;;;;;28.65;13.93;;;;;;;3.60;100.00;98308.13;2612240;36;20479;-70
2021/11/27 01:24:54;;;;;;;26.02;13.55;;;;;;;3.62;100.00;98298.19;2612412;36;20034;-68
2021/11/27 01:30:33;;;;;;;23.67;12.82;;;;;;;3.56;100.00;98311.25;2610452;36;20061;-69
2021/11/27 01:33:22;;;;;;;;;;;;;;;3.57;100.00;98296.97;2610529;36;20600;-68
2021/11/27 01:35:53;;;;;;;29.08;12.23;;;;;;;3.57;100.00;98304.94;2611751;36;20033;-70
2021/11/27 01:38:34;;;;;;;24.83;11.90;;;;;;;3.59;100.00;98301.16;2611609;36;20145;-69
2021/11/27 01:41:42;;;;;;;25.30;12.77;;;;;;;3.59;100.00;98306.47;2612082;36;20061;-70
2021/11/27 01:44:25;;;;;;;28.08;13.10;;;;;;;3.69;100.00;98306.34;2612230;31;20030;-69
2021/11/27 01:47:16;;;;;;;26.58;12.55;;;;;;;3.64;100.00;98311.31;2611896;36;20038;-69
2021/11/27 01:49:44;;;;;;;28.58;12.82;;;;;;;3.60;100.00;98310.78;2611579;36;20056;-69
2021/11/27 01:52:13;;;;;;;30.23;13.10;;;;;;;3.63;100.00;98309.63;2611969;36;20056;-70
2021/11/27 01:55:17;;;;;;;25.08;12.80;;;;;;;3.64;100.00;98313.97;2612005;31;20646;-69
2021/11/27 01:57:50;;;;;;;25.55;11.23;;;;;;;3.66;100.00;98317.31;2611934;36;20118;-70
2021/11/27 02:01:03;;;;;;;20.77;11.23;;;;;;;3.58;100.00;98317.22;2611913;36;20049;-69
2021/11/27 02:03:58;;;;;;;27.02;11.43;;;;;;;3.60;100.00;98313.44;2611811;36;20145;-71
2021/11/27 02:06:28;;;;;;;21.17;11.15;;;;;;;3.59;100.00;98318.91;2611878;31;20118;-68
2021/11/27 02:09:15;;;;;;;18.60;10.40;;;;;;;3.66;100.00;98325.28;2612135;36;20767;-69
2021/11/27 02:14:28;;;;;;;21.58;10.23;;;;;;;3.62;100.00;98327.44;2611437;36;20034;-70
2021/11/27 02:16:57;;;;;;;22.60;9.63;;;;;;;3.59;100.00;98326.88;2611976;36;20174;-68
2021/11/27 02:19:28;;;;;;;19.93;8.73;;;;;;;3.56;100.00;98329.84;2611817;54;20160;-69
2021/11/27 02:21:59;;;;;;;19.17;8.57;;;;;;;3.62;100.00;98326.56;2611703;36;20419;-69
2021/11/27 02:24:30;;;;;;;20.35;8.90;;;;;;;3.60;100.00;98328.56;2611630;36;20031;-70
2021/11/27 02:29:42;;;;;;;15.98;6.90;;;;;;;3.46;100.00;98333.44;2611236;36;20062;-69
2021/11/27 02:34:55;;;;;;;17.65;6.75;;;;;;;3.51;100.00;98320.50;2611600;36;20446;-72
2021/11/27 02:37:49;;;;;;;15.13;6.68;;;;;;;3.40;100.00;98320.78;2611943;36;20084;-70
2021/11/27 02:40:18;;;;;;;19.13;5.25;;;;;;;3.39;100.00;98321.75;2612054;36;20053;-73
2021/11/27 02:43:04;;;;;;;13.18;4.95;;;;;;;3.44;100.00;98324.78;2612196;36;20141;-70
2021/11/27 02:45:57;;;;;;;10.40;4.28;;;;;;;3.39;100.00;98327.06;2611557;36;20057;-69
2021/11/27 02:51:08;;;;;;;13.98;4.03;;;;;;;3.41;100.00;98329.56;2610535;36;20038;-70
2021/11/27 02:56:26;;;;;;;6.28;2.42;;;;;;;3.27;100.00;98322.97;2611531;31;20030;-71
2021/11/27 02:59:09;;;;;;;8.48;2.63;;;;;;;3.26;100.00;98326.63;2612057;31;20037;-70
2021/11/27 03:01:37;;;;;;;11.32;2.97;;;;;;;3.34;100.00;98326.66;2611489;36;20030;-69
2021/11/27 03:04:08;;;;;;;12.52;3.13;;;;;;;3.26;100.00;98337.25;2611349;36;20129;-70
2021/11/27 03:06:36;;;;;;;10.73;2.58;;;;;;;3.22;100.00;98335.88;2610778;36;20126;-69
2021/11/27 03:09:08;;;;;;;6.95;2.72;;;;;;;3.27;100.00;98336.28;2611418;36;20502;-70
2021/11/27 03:11:40;;;;;;;7.45;2.83;;;;;;;3.31;100.00;98343.78;2612186;36;20730;-69
2021/11/27 03:14:08;;;;;;;8.63;2.10;;;;;;;3.25;100.00;98349.69;2611209;31;20034;-71
2021/11/27 03:16:40;;;;;;;5.50;2.03;;;;;;;3.29;100.00;98352.91;2611723;36;20500;-71
2021/11/27 03:19:10;;;;;;;12.32;2.10;;;;;;;3.29;100.00;98350.25;2611498;36;20038;-71
2021/11/27 03:21:39;;;;;;;7.45;1.67;;;;;;;3.26;100.00;98355.84;2610077;36;20173;-70
2021/11/27 03:24:10;;;;;;;11.38;1.90;;;;;;;3.19;100.00;98352.13;2611232;36;20122;-70
2021/11/27 03:26:39;;;;;;;5.20;2.15;;;;;;;3.27;100.00;98360.19;2611267;36;20731;-70
2021/11/27 03:29:07;;;;;;;8.68;1.92;;;;;;;3.26;100.00;98361.19;2610863;36;20062;-71
2021/11/27 03:34:16;;;;;;;6.20;1.60;;;;;;;3.25;100.00;98359.50;2612020;36;20350;-70
2021/11/27 03:36:45;;;;;;;7.72;1.55;;;;;;;3.25;100.00;98365.63;2612751;31;20027;-70
2021/11/27 03:39:15;;;;;;;6.78;2.00;;;;;;;3.21;100.00;98369.59;2612427;36;20051;-71
2021/11/27 03:41:44;;;;;;;9.70;1.63;;;;;;;3.28;100.00;98365.38;2612795;36;20146;-70
2021/11/27 03:44:12;;;;;;;3.65;1.45;;;;;;;3.25;100.00;98367.47;2612652;36;20065;-70
2021/11/27 03:46:41;;;;;;;8.13;1.33;;;;;;;3.23;100.00;98377.44;2612716;36;20031;-70
2021/11/27 03:49:10;;;;;;;9.27;1.77;;;;;;;3.22;100.00;98376.56;2613344;36;20636;-69
2021/11/27 03:51:38;;;;;;;3.13;1.67;;;;;;;3.20;100.00;98372.41;2612219;36;20168;-69
2021/11/27 03:54:07;;;;;;;4.38;2.05;;;;;;;3.10;100.00;98381.28;2612076;31;20161;-69
2021/11/27 03:56:38;;;;;;;3.58;1.45;;;;;;;3.21;100.00;98376.72;2612959;36;20238;-70
2021/11/27 03:59:11;;;;;;;9.57;1.50;;;;;;;3.26;100.00;98385.09;2612317;36;20030;-71
2021/11/27 04:01:39;;;;;;;7.15;1.60;;;;;;;3.20;100.00;98385.72;2612354;36;20056;-69
2021/11/27 04:04:09;;;;;;;5.80;1.70;;;;;;;3.25;100.00;98386.91;2611737;36;20061;-69
2021/11/27 04:06:39;;;;;;;5.35;1.25;;;;;;;3.28;100.00;98388.44;2611732;36;20955;-70
2021/11/27 04:09:09;;;;;;;7.78;1.60;;;;;;;3.26;100.00;98396.56;2612430;36;20696;-70
2021/11/27 04:11:42;;;;;;;3.53;1.30;;;;;;;3.41;100.00;98398.69;2612152;36;20042;-71
2021/11/27 04:14:10;;;;;;;5.85;1.60;;;;;;;3.32;100.00;98395.94;2611971;36;20172;-70
2021/11/27 04:16:39;;;;;;;6.32;1.45;;;;;;;3.30;100.00;98403.25;2611856;31;20137;-69
2021/11/27 04:19:07;;;;;;;7.65;1.42;;;;;;;3.27;100.00;98392.09;2612746;31;20531;-69
2021/11/27 04:21:36;;;;;;;5.50;1.40;;;;;;;3.36;100.00;98404.47;2611834;36;20786;-68
2021/11/27 04:24:05;;;;;;;3.47;1.30;;;;;;;3.34;100.00;98403.78;2611959;36;20153;-69
2021/11/27 04:26:33;;;;;;;4.63;1.40;;;;;;;3.39;100.00;98406.00;2612636;31;20183;-69
2021/11/27 04:29:05;;;;;;;6.95;1.30;;;;;;;3.35;100.00;98415.25;2611766;31;20039;-68
2021/11/27 04:31:33;;;;;;;4.22;1.30;;;;;;;3.37;100.00;98410.63;2611689;36;20039;-69
2021/11/27 04:34:05;;;;;;;7.72;1.25;;;;;;;3.37;100.00;98411.44;2611834;36;20140;-69
2021/11/27 04:36:33;;;;;;;3.25;1.02;;;;;;;3.33;100.00;98418.06;2611639;36;20035;-68
2021/11/27 04:39:05;;;;;;;6.63;1.40;;;;;;;3.32;100.00;98419.06;2611617;36;20118;-69
2021/11/27 04:41:34;;;;;;;6.00;1.30;;;;;;;3.27;100.00;98413.38;2612637;36;20534;-69
2021/11/27 04:46:30;;;;;;;4.90;1.50;;;;;;;3.79;100.00;98429.47;2611998;36;20042;-69
2021/11/27 04:48:59;;;;;;;9.70;1.40;;;;;;;3.61;100.00;98431.31;2611943;36;20129;-68
2021/11/27 04:52:14;;;;;;;2.83;1.00;;;;;;;3.72;100.00;98433.72;2611319;36;20056;-69
2021/11/27 04:54:49;;;;;;;7.85;1.20;;;;;;;3.54;100.00;98433.75;2612535;36;20419;-69
2021/11/27 05:00:01;;;;;;;11.57;1.65;;;;;;;3.49;100.00;98436.03;2611502;36;20034;-69
2021/11/27 05:05:43;;;;;;;6.22;1.40;;;;;;;3.68;100.00;98456.31;2611596;36;20135;-69
2021/11/27 05:08:11;;;;;;;3.03;1.00;;;;;;;3.70;100.00;98451.69;2611607;36;20157;-69
2021/11/27 05:10:39;;;;;;;5.60;1.20;;;;;;;3.60;100.00;98453.59;2612144;36;20188;-69
2021/11/27 05:13:10;;;;;;;7.30;1.20;;;;;;;3.56;100.00;98454.88;2611436;31;20034;-69
2021/11/27 05:15:38;;;;;;;5.85;1.25;;;;;;;3.64;100.00;98463.75;2612130;36;20069;-70
2021/11/27 05:18:10;;;;;;;6.32;1.15;;;;;;;3.60;100.00;98456.25;2611654;36;20176;-70
2021/11/27 05:20:38;;;;;;;2.88;1.33;;;;;;;3.60;100.00;98466.88;2611990;36;20114;-70
2021/11/27 05:23:09;;;;;;;4.35;1.27;;;;;;;3.56;100.00;98465.50;2611842;36;20153;-70
2021/11/27 05:25:37;;;;;;;5.20;1.15;;;;;;;3.66;100.00;98467.09;2611620;36;20046;-71
2021/11/27 05:28:06;;;;;;;7.53;1.45;;;;;;;3.66;100.00;98482.22;2611874;36;20185;-71
2021/11/27 05:30:34;;;;;;;1.83;1.05;;;;;;;3.57;100.00;98465.34;2612220;31;20036;-71
2021/11/27 05:35:44;;;;;;;5.10;1.92;;;;;;;3.61;100.00;98481.84;2611577;36;20041;-70
2021/11/27 05:38:16;;;;;;;4.95;1.20;;;;;;;3.60;100.00;98488.97;2611563;36;20068;-69
2021/11/27 05:41:03;;;;;;;2.55;1.40;;;;;;;3.60;100.00;98488.16;2612047;36;20160;-69
2021/11/27 05:43:32;;;;;;;4.03;1.20;;;;;;;3.64;100.00;98492.19;2611755;36;20179;-69
2021/11/27 05:46:00;;;;;;;;;;;;;;;3.64;100.00;98493.03;2611795;36;20030;-69
2021/11/27 05:48:31;;;;;;;4.15;1.30;;;;;;;3.65;100.00;98496.50;2612392;36;20560;-69
2021/11/27 05:51:00;;;;;;;3.45;1.23;;;;;;;3.72;100.00;98499.41;2611837;36;20045;-69
2021/11/27 05:53:30;;;;;;;5.97;1.40;;;;;;;3.67;100.00;98506.03;2612053;36;20165;-69
2021/11/27 05:55:59;;;;;;;4.88;1.27;;;;;;;3.71;100.00;98503.91;2612485;36;20533;-70
2021/11/27 05:58:27;;;;;;;2.63;1.17;;;;;;;3.67;100.00;98500.69;2611706;36;20034;-69
2021/11/27 06:00:59;;;;;;;3.17;1.13;;;;;;;3.59;100.00;98513.94;2612450;31;20041;-69
2021/11/27 06:03:27;;;;;;;2.50;1.20;;;;;;;3.48;100.00;98506.16;2612088;36;20732;-70
2021/11/27 06:05:55;;;;;;;4.95;1.40;;;;;;;3.45;100.00;98507.28;2611833;36;20165;-71
2021/11/27 06:08:24;;;;;;;5.50;1.17;;;;;;;3.41;100.00;98515.69;2611863;31;20039;-69
2021/11/27 06:10:55;;;;;;;7.95;1.30;;;;;;;3.43;100.00;98513.72;2612123;36;20551;-68
2021/11/27 06:13:23;;;;;;;8.10;1.63;;;;;;;3.20;100.00;98514.13;2611881;36;20117;-70
2021/11/27 06:15:51;;;;;;;4.28;1.42;;;;;;;3.26;100.00;98533.97;2612085;36;20126;-69
2021/11/27 06:18:19;;;;;;;6.75;1.20;;;;;;;3.14;100.00;98534.16;2612057;31;20515;-70
2021/11/27 06:20:48;;;;;;;4.60;1.48;;;;;;;3.25;100.00;98532.28;2611719;36;20121;-70
2021/11/27 06:23:16;;;;;;;5.25;1.17;;;;;;;3.30;100.00;98530.88;2612100;36;20121;-70
2021/11/27 06:25:44;;;;;;;8.70;1.88;;;;;;;3.23;100.00;98526.28;2612013;36;20041;-71
2021/11/27 06:28:15;;;;;;;3.15;1.20;;;;;;;3.29;100.00;98531.00;2611633;36;20638;-69
2021/11/27 06:30:44;;;;;;;7.95;1.65;;;;;;;3.25;100.00;98538.44;2611739;36;20038;-69
2021/11/27 06:33:12;;;;;;;9.98;1.60;;;;;;;3.17;100.00;98540.16;2611857;36;20126;-70
2021/11/27 06:35:40;;;;;;;5.05;1.50;;;;;;;3.21;100.00;98549.50;2611406;36;20157;-69
2021/11/27 06:38:08;;;;;;;8.15;1.45;;;;;;;3.19;100.00;98554.16;2611712;36;20057;-69
2021/11/27 06:40:37;;;;;;;7.93;1.50;;;;;;;3.12;100.00;98549.41;2612157;31;20126;-70
2021/11/27 06:43:06;;;;;;;4.00;1.20;;;;;;;3.11;100.00;98558.38;2612074;36;20088;-70
2021/11/27 06:45:37;;;;;;;9.20;1.40;;;;;;;3.24;100.00;98567.81;2612480;31;20443;-69
2021/11/27 06:48:05;;;;;;;5.30;1.10;;;;;;;3.09;100.00;98570.13;2611666;36;20031;-69
2021/11/27 06:50:34;;;;;;;4.78;1.40;;;;;;;3.17;100.00;98570.25;2611755;31;20558;-69
2021/11/27 06:53:02;;;;;;;7.17;1.40;;;;;;;3.20;100.00;98585.06;2612017;31;20625;-69
2021/11/27 06:55:31;;;;;;;4.68;1.33;;;;;;;3.12;100.00;98583.97;2612641;36;20410;-69
2021/11/27 06:57:59;;;;;;;3.80;1.00;;;;;;;3.09;100.00;98589.56;2612616;36;20042;-69
2021/11/27 07:00:28;;;;;;;4.18;1.30;;;;;;;3.21;100.00;98600.00;2612679;36;20141;-69
2021/11/27 07:02:59;;;;;;;3.80;1.55;;;;;;;3.27;100.00;98594.13;2612686;36;20042;-71
2021/11/27 07:05:27;;;;;;;6.68;1.20;;;;;;;3.29;100.00;98598.31;2612500;36;20065;-70
2021/11/27 07:07:55;;;;;;;5.40;1.40;;;;;;;3.20;100.00;98601.03;2612836;36;20035;-71
2021/11/27 07:10:23;;;;;;;5.03;1.77;;;;;;;3.17;100.00;98609.28;2613174;36;20038;-69
2021/11/27 07:12:52;;;;;;;4.78;1.60;;;;;;;3.09;100.00;98608.19;2613912;31;20573;-70
2021/11/27 07:15:20;;;;;;;5.38;1.50;;;;;;;2.97;100.00;98615.47;2613087;36;20129;-68
2021/11/27 07:17:48;;;;;;;5.72;1.45;;;;;;;2.93;100.00;98623.84;2613332;36;20137;-70
2021/11/27 07:20:19;;;;;;;5.85;1.50;;;;;;;2.93;100.00;98631.81;2612803;31;20594;-71
2021/11/27 07:22:47;;;;;;;7.95;1.63;;;;;;;3.00;100.00;98640.91;2612987;36;20125;-69
2021/11/27 07:25:15;;;;;;;4.25;1.30;;;;;;;3.05;100.00;98638.69;2612997;36;20160;-71
2021/11/27 07:27:44;;;;;;;6.18;2.15;;;;;;;3.04;100.00;98642.31;2613071;31;20133;-69
2021/11/27 07:30:12;;;;;;;6.20;1.63;;;;;;;3.08;100.00;98651.69;2612654;36;20142;-68
2021/11/27 07:32:41;;;;;;;3.72;1.42;;;;;;;3.04;100.00;98650.28;2613102;31;20165;-69
2021/11/27 07:35:09;;;;;;;3.72;1.60;;;;;;;3.04;100.00;98652.94;2612359;36;20034;-70
2021/11/27 07:37:40;;;;;;;3.55;1.60;;;;;;;2.93;100.00;98661.06;2612757;36;20081;-69
2021/11/27 07:40:10;;;;;;;8.52;2.08;;;;;;;2.84;100.00;98665.41;2612772;36;20545;-69
2021/11/27 07:42:38;;;;;;;;;;;;;;;2.91;100.00;98673.66;2613035;36;20192;-69
2021/11/27 07:45:08;;;;;;;10.27;2.70;;;;;;;2.88;100.00;98679.25;2613089;36;20525;-69
2021/11/27 07:47:36;;;;;;;7.20;2.80;;;;;;;2.94;100.00;98687.47;2612941;36;20298;-69
2021/11/27 07:50:05;;;;;;;7.70;3.28;;;;;;;2.83;100.00;98687.66;2610441;36;21012;-69
2021/11/27 07:52:34;;;;;;;5.30;3.05;;;;;;;2.90;100.00;98687.91;2612252;36;20134;-70
2021/11/27 07:55:06;;;;;;;7.75;3.72;;;;;;;2.80;100.00;98690.59;2612195;36;20175;-69
2021/11/27 07:57:34;;;;;;;8.65;3.88;;;;;;;2.84;100.00;98696.44;2612036;36;20650;-68
2021/11/27 08:00:02;;;;;;;7.30;3.85;;;;;;;2.88;100.00;98697.84;2612217;36;20551;-68
2021/11/27 08:02:30;;;;;;;8.30;3.90;;;;;;;2.86;100.00;98698.00;2612252;36;20117;-69
2021/11/27 08:04:58;;;;;;;6.50;3.75;;;;;;;2.74;100.00;98705.25;2612366;36;20056;-69
2021/11/27 08:07:27;;;;;;;10.02;4.65;;;;;;;2.86;100.00;98702.47;2611452;36;20662;-70
2021/11/27 08:09:55;;;;;;;7.00;4.03;;;;;;;2.90;100.00;98699.41;2612547;36;20592;-70
2021/11/27 08:14:56;;;;;;;7.57;3.90;;;;;;;2.85;100.00;98706.09;2612824;31;20065;-69
2021/11/27 08:17:24;;;;;;;6.55;3.88;;;;;;;2.86;100.00;98707.78;2612927;36;20133;-70
2021/11/27 08:19:53;;;;;;;6.88;3.92;;;;;;;2.73;100.00;98711.53;2612751;36;20042;-69
2021/11/27 08:22:21;;;;;;;7.03;3.83;;;;;;;2.80;100.00;98717.16;2613197;31;20542;-69
2021/11/27 08:24:51;;;;;;;9.40;3.50;;;;;;;2.89;100.00;98712.81;2612892;36;20487;-69
2021/11/27 08:27:20;;;;;;;7.53;3.35;;;;;;;2.89;100.00;98718.13;2612971;36;20035;-70
2021/11/27 08:29:48;;;;;;;6.38;3.08;;;;;;;2.90;100.00;98725.09;2612961;36;20030;-68
2021/11/27 08:32:19;;;;;;;5.65;3.50;;;;;;;2.94;100.00;98724.69;2612649;36;20611;-70
2021/11/27 08:34:47;;;;;;;5.43;3.97;;;;;;;3.00;100.00;98719.81;2612787;36;20149;-70
2021/11/27 08:37:16;;;;;;;6.90;2.80;;;;;;;3.02;100.00;98723.16;2612499;36;20034;-70
2021/11/27 08:39:44;;;;;;;7.13;2.70;;;;;;;2.95;100.00;98725.53;2612676;36;20052;-71
2021/11/27 08:42:13;;;;;;;5.85;3.00;;;;;;;2.91;100.00;98737.41;2612286;36;20077;-69
2021/11/27 08:44:41;;;;;;;9.88;3.10;;;;;;;2.97;100.00;98729.75;2612704;36;20573;-69
2021/11/27 08:47:09;;;;;;;7.43;3.42;;;;;;;2.93;100.00;98740.78;2612275;36;20114;-69
2021/11/27 08:49:40;;;;;;;5.63;3.28;;;;;;;3.03;100.00;98746.09;2612367;36;20069;-70
2021/11/27 08:52:09;;;;;;;7.88;3.47;;;;;;;3.17;100.00;98737.69;2612706;31;20385;-69
2021/11/27 08:54:37;;;;;;;6.47;3.85;;;;;;;3.19;100.00;98737.56;2612032;36;20030;-69
2021/11/27 08:57:06;;;;;;;6.45;3.60;;;;;;;3.21;100.00;98748.88;2612326;36;20145;-70
2021/11/27 08:59:36;;;;;;;8.53;3.57;;;;;;;3.09;100.00;98743.72;2612226;36;20034;-69
2021/11/27 09:02:04;;;;;;;6.32;3.05;;;;;;;3.04;100.00;98753.94;2612165;36;20061;-69
2021/11/27 09:04:33;;;;;;;6.32;3.17;;;;;;;3.02;100.00;98750.59;2612202;36;20058;-69
2021/11/27 09:07:06;;;;;;;;;;;;;;;3.01;100.00;98748.91;2610251;36;20168;-69
2021/11/27 09:09:35;;;;;;;7.20;3.25;;;;;;;3.04;100.00;98759.25;2611853;36;20311;-70
2021/11/27 09:12:11;;;;;;;15.70;7.40;;;;;;;3.08;100.00;98755.34;2611920;36;20633;-69
2021/11/27 09:14:40;;;;;;;7.82;3.38;;;;;;;3.12;100.00;98759.41;2612757;36;20299;-71
2021/11/27 09:17:08;;;;;;;4.78;2.95;;;;;;;3.07;100.00;98763.44;2612452;36;20596;-70
2021/11/27 09:19:36;;;;;;;6.30;2.90;;;;;;;3.06;100.00;98767.94;2612673;36;20624;-69
2021/11/27 09:22:07;;;;;;;6.97;3.00;;;;;;;2.99;100.00;98780.09;2612480;36;20088;-69
2021/11/27 09:27:21;;;;;;;6.90;3.47;;;;;;;2.99;100.00;98782.75;2610698;36;20038;-69
2021/11/27 09:29:51;;;;;;;4.97;3.03;;;;;;;3.25;100.00;98792.81;2611044;54;20076;-69
2021/11/27 09:32:19;;;;;;;;;;;;;;;3.23;100.00;98789.47;2610849;36;20595;-69
2021/11/27 09:34:48;;;;;;;6.68;3.10;;;;;;;3.19;100.00;98796.03;2610580;36;19950;-70
2021/11/27 09:37:19;;;;;;;4.50;2.75;;;;;;;3.15;100.00;98798.13;2610248;36;20647;-68
2021/11/27 09:39:48;;;;;;;4.57;2.90;;;;;;;3.26;100.00;98802.47;2611732;36;20578;-68
2021/11/27 09:42:20;;;;;;;6.65;4.07;;;;;;;3.13;100.00;98803.59;2629184;36;20485;-75
2021/11/27 09:44:51;;;;;;;4.57;2.45;;;;;;;3.06;100.00;98807.81;2611742;36;20149;-71
2021/11/27 09:47:20;;;;;;;8.02;3.70;;;;;;;2.99;100.00;98814.66;2610660;36;20122;-66
2021/11/27 09:49:53;;;;;;;6.72;2.97;;;;;;;2.98;100.00;98812.97;2612061;31;20065;-69
2021/11/27 09:52:26;;;;;;;4.20;2.78;;;;;;;2.99;100.00;98809.31;2611631;36;20038;-69
2021/11/27 09:55:00;;;;;;;3.67;2.50;;;;;;;2.98;100.00;98813.78;2611987;36;20039;-74
2021/11/27 09:57:29;;;;;;;2.95;1.80;;;;;;;2.85;100.00;98810.56;2612001;36;20069;-69
2021/11/27 09:59:58;;;;;;;4.95;2.38;;;;;;;2.70;100.00;98815.41;2611230;36;20038;-71
2021/11/27 10:02:27;;;;;;;4.47;2.15;;;;;;;2.77;100.00;98826.34;2610653;36;20065;-69
2021/11/27 10:04:57;;;;;;;3.28;2.25;;;;;;;2.70;100.00;98820.72;2612412;36;20038;-75
2021/11/27 10:07:29;;;;;;;3.53;2.38;;;;;;;2.69;100.00;98824.34;2612159;36;20125;-71
2021/11/27 10:09:59;;;;;;;3.60;2.20;;;;;;;2.75;100.00;98828.28;2611609;36;20547;-67
2021/11/27 10:12:27;;;;;;;6.38;2.85;;;;;;;2.74;100.00;98827.47;2610981;36;20058;-66
2021/11/27 10:15:00;;;;;;;4.32;3.20;;;;;;;2.71;100.00;98822.41;2611603;36;20602;-74
2021/11/27 10:17:40;;;;;;;4.72;3.78;;;;;;;2.74;100.00;98830.13;2613973;36;20117;-71
2021/11/27 10:20:11;;;;;;;5.93;3.70;;;;;;;2.79;100.00;98830.53;2610837;36;20030;-69
2021/11/27 10:23:01;;;;;;;4.85;3.85;;;;;;;2.63;100.00;98830.22;2611545;36;20066;-70
2021/11/27 10:25:40;;;;;;;6.50;3.63;;;;;;;2.69;100.00;98829.66;2610940;36;20161;-70
2021/11/27 10:31:40;;;;;;;6.35;4.03;;;;;;;2.86;100.00;98835.31;2609294;31;20030;-68
2021/11/27 10:34:08;;;;;;;6.78;4.35;;;;;;;2.74;100.00;98826.59;2611238;36;20034;-76
2021/11/27 10:40:03;;;;;;;5.55;3.42;;;;;;;2.72;100.00;98826.72;2611810;36;20566;-75
2021/11/27 10:42:38;;;;;;;5.18;4.10;;;;;;;2.71;100.00;98822.41;2612091;36;20439;-70
2021/11/27 10:46:05;;;;;;;5.82;3.83;;;;;;;2.77;100.00;98821.88;2610867;36;20060;-69
2021/11/27 10:51:25;;;;;;;5.18;3.97;;;;;;;2.85;100.00;98833.63;2609453;36;20566;-69
2021/11/27 11:02:26;;;;;;;5.15;3.95;;;;;;;3.08;100.00;98835.06;2608751;36;20053;-76
2021/11/27 11:08:15;;;;;;;5.53;4.20;;;;;;;3.19;100.00;98841.22;2610065;36;20034;-68
2021/11/27 11:10:43;;;;;;;7.75;4.15;;;;;;;3.17;100.00;98837.88;2610145;36;20122;-71
2021/11/27 11:19:43;;;;;;;8.75;5.13;;;;;;;3.58;100.00;98835.91;2610941;36;20042;-69
2021/11/27 11:22:20;;;;;;;9.48;5.22;;;;;;;3.60;100.00;98831.28;2611671;36;20038;-68
2021/11/27 11:24:56;;;;;;;10.90;5.03;;;;;;;3.57;100.00;98840.38;2611608;36;20578;-77
2021/11/27 11:30:15;;;;;;;10.02;5.93;;;;;;;3.95;100.00;98845.81;2611062;36;20160;-69
2021/11/27 11:38:51;;;;;;;10.90;6.97;;;;;;;3.86;100.00;98848.34;2624257;36;20035;-71
2021/11/27 11:41:22;;;;;;;13.65;8.48;;;;;;;3.87;100.00;98838.53;2609773;31;20467;-69
2021/11/27 11:50:10;;;;;;;16.95;9.77;;;;;;;3.81;100.00;98852.41;2609722;36;20031;-77
2021/11/27 11:52:47;;;;;;;20.42;10.38;;;;;;;3.89;100.00;98857.00;2628915;36;20543;-69
2021/11/27 12:04:33;;;;;;;17.30;8.88;;;;;;;3.93;100.00;98866.41;2610024;36;20018;-69
2021/11/27 12:07:10;;;;;;;15.93;9.18;;;;;;;4.13;100.00;98870.69;2612337;36;20419;-70
2021/11/27 12:16:40;;;;;;;22.00;9.85;;;;;;;4.03;100.00;98869.88;2611979;50;20030;-70
2021/11/27 12:34:47;;;;;;;19.98;6.97;;;;;;;4.09;100.00;98871.97;2610217;36;20045;-71
2021/11/27 12:37:29;;;;;;;20.75;8.10;;;;;;;4.02;100.00;98871.72;2608582;36;20052;-70
2021/11/27 12:40:06;;;;;;;77.45;35.35;;;;;;;4.12;100.00;98879.69;2607505;36;20035;-71
2021/11/27 13:42:10;;;;;;;17.05;7.15;;;;;;;3.26;100.00;98938.06;2609911;47;20681;-70
2021/11/27 13:44:45;;;;;;;16.92;7.07;;;;;;;3.41;100.00;98941.19;2611064;36;20035;-76
2021/11/27 14:16:05;;;;;;;11.20;5.03;;;;;;;3.13;100.00;98946.28;2610963;36;20547;-69
2021/11/27 14:47:07;;;;;;;9.27;4.63;;;;;;;3.08;100.00;98977.75;2610381;36;20073;-68
2021/11/27 17:05:18;;;;;;;28.88;12.45;;;;;;;2.49;100.00;99114.72;2605003;54;20067;-68
2021/11/27 17:44:45;;;;;;;28.20;13.98;;;;;;;2.27;100.00;99122.66;2613732;36;20045;-68
2021/11/27 17:47:13;;;;;;;30.95;14.75;;;;;;;2.30;100.00;99120.69;2613416;36;20170;-68
2021/11/27 17:49:47;;;;;;;32.45;16.83;;;;;;;2.27;100.00;99113.84;2613186;36;20038;-68
2021/11/27 17:55:46;;;;;;;28.92;15.82;;;;;;;2.24;100.00;99127.38;2613314;36;20053;-69
2021/11/27 17:58:14;;;;;;;30.65;15.52;;;;;;;2.21;100.00;99132.91;2612662;36;20550;-68
2021/11/27 18:00:46;;;;;;;58.95;29.50;;;;;;;2.15;100.00;99133.41;2611453;36;20157;-68
2021/11/27 18:06:26;;;;;;;31.58;16.50;;;;;;;2.29;100.00;99146.41;2613359;36;20034;-69
2021/11/27 18:09:27;;;;;;;32.80;14.55;;;;;;;2.30;100.00;99148.09;2614694;36;20053;-68
2021/11/27 18:12:05;;;;;;;36.30;16.00;;;;;;;2.35;100.00;99145.91;2613471;31;20053;-69
2021/11/27 18:17:49;;;;;;;30.80;17.02;;;;;;;2.36;100.00;99155.56;2615292;36;20022;-67
2021/11/27 18:26:17;;;;;;;32.88;16.60;;;;;;;2.43;100.00;99159.41;2612776;36;20046;-70
2021/11/27 18:28:47;;;;;;;37.42;18.20;;;;;;;2.42;100.00;99157.72;2613866;36;20038;-68
2021/11/27 18:31:15;;;;;;;;;;;;;;;2.45;100.00;99173.38;2614425;36;20130;-69
2021/11/27 18:33:56;;;;;;;34.37;18.83;;;;;;;2.43;100.00;99175.34;2614487;36;19946;-69
2021/11/27 18:36:25;;;;;;;41.80;20.23;;;;;;;2.47;100.00;99175.09;2614526;36;20165;-68
2021/11/27 18:39:01;;;;;;;39.78;19.50;;;;;;;2.47;100.00;99169.78;2614897;36;20041;-69
2021/11/27 18:41:35;;;;;;;50.13;27.98;;;;;;;2.57;100.00;99184.81;2611326;36;20606;-69
2021/11/27 18:44:11;;;;;;;45.15;20.98;;;;;;;2.54;100.00;99192.22;2614839;36;20042;-69
2021/11/27 18:46:39;;;;;;;45.08;21.42;;;;;;;2.55;100.00;99193.91;2612364;36;20108;-69
2021/11/27 18:49:10;;;;;;;42.67;21.35;;;;;;;2.54;100.00;99194.88;2611540;31;20538;-69
2021/11/27 18:51:42;;;;;;;42.53;21.40;;;;;;;2.53;100.00;99196.69;2609433;36;20157;-69